sensor_id;sensor_type;location;lat;lon;timestamp;P1;durP1;ratioP1;P2;durP2;ratioP2
47772;SDS011;33534;51.028;13.716;2023-06-22T00:01:52;10.18;;;9.00;;
47772;SDS011;33534;51.028;13.716;2023-06-22T00:04:18;9.25;;;8.32;;
47772;SDS011;33534;51.028;13.716;2023-06-22T00:06:44;8.80;;;7.72;;
47772;SDS011;33534;51.028;13.716;2023-06-22T00:09:10;10.60;;;8.73;;
47772;SDS011;33534;51.028;13.716;2023-06-22T00:11:36;11.60;;;9.57;;
47772;SDS011;33534;51.028;13.716;2023-06-22T00:14:03;12.02;;;8.68;;
47772;SDS011;33534;51.028;13.716;2023-06-22T00:16:30;11.35;;;8.80;;
47772;SDS011;33534;51.028;13.716;2023-06-22T00:18:56;11.80;;;9.55;;
47772;SDS011;33534;51.028;13.716;2023-06-22T00:21:25;10.48;;;9.07;;
47772;SDS011;33534;51.028;13.716;2023-06-22T00:23:51;11.25;;;9.13;;
47772;SDS011;33534;51.028;13.716;2023-06-22T00:26:17;11.02;;;9.48;;
47772;SDS011;33534;51.028;13.716;2023-06-22T00:28:43;11.60;;;8.50;;
47772;SDS011;33534;51.028;13.716;2023-06-22T00:31:09;11.38;;;9.27;;
47772;SDS011;33534;51.028;13.716;2023-06-22T00:33:35;13.88;;;9.35;;
47772;SDS011;33534;51.028;13.716;2023-06-22T00:36:01;12.38;;;9.52;;
47772;SDS011;33534;51.028;13.716;2023-06-22T00:38:28;10.52;;;9.23;;
47772;SDS011;33534;51.028;13.716;2023-06-22T00:40:54;11.90;;;9.65;;
47772;SDS011;33534;51.028;13.716;2023-06-22T00:43:20;18.00;;;9.55;;
47772;SDS011;33534;51.028;13.716;2023-06-22T00:45:46;11.25;;;9.35;;
47772;SDS011;33534;51.028;13.716;2023-06-22T00:48:13;16.23;;;9.55;;
47772;SDS011;33534;51.028;13.716;2023-06-22T00:50:39;11.65;;;9.80;;
47772;SDS011;33534;51.028;13.716;2023-06-22T00:53:06;11.18;;;10.00;;
47772;SDS011;33534;51.028;13.716;2023-06-22T00:55:36;11.25;;;9.52;;
47772;SDS011;33534;51.028;13.716;2023-06-22T00:58:02;11.73;;;9.88;;
47772;SDS011;33534;51.028;13.716;2023-06-22T01:00:30;10.98;;;9.52;;
47772;SDS011;33534;51.028;13.716;2023-06-22T01:02:57;10.35;;;9.40;;
47772;SDS011;33534;51.028;13.716;2023-06-22T01:05:23;11.02;;;9.00;;
47772;SDS011;33534;51.028;13.716;2023-06-22T01:10:29;14.38;;;9.50;;
47772;SDS011;33534;51.028;13.716;2023-06-22T01:13:13;10.25;;;9.13;;
47772;SDS011;33534;51.028;13.716;2023-06-22T01:18:22;9.52;;;8.52;;
47772;SDS011;33534;51.028;13.716;2023-06-22T01:20:51;10.27;;;8.73;;
47772;SDS011;33534;51.028;13.716;2023-06-22T01:23:22;11.27;;;8.65;;
47772;SDS011;33534;51.028;13.716;2023-06-22T01:28:23;8.82;;;7.93;;
47772;SDS011;33534;51.028;13.716;2023-06-22T01:30:50;10.63;;;8.57;;
47772;SDS011;33534;51.028;13.716;2023-06-22T01:33:28;10.85;;;9.10;;
47772;SDS011;33534;51.028;13.716;2023-06-22T01:35:54;12.30;;;9.52;;
47772;SDS011;33534;51.028;13.716;2023-06-22T01:38:20;15.15;;;10.07;;
47772;SDS011;33534;51.028;13.716;2023-06-22T01:40:47;12.65;;;10.02;;
47772;SDS011;33534;51.028;13.716;2023-06-22T01:43:13;10.75;;;9.65;;
47772;SDS011;33534;51.028;13.716;2023-06-22T01:45:39;10.20;;;9.18;;
47772;SDS011;33534;51.028;13.716;2023-06-22T01:48:05;10.25;;;9.15;;
47772;SDS011;33534;51.028;13.716;2023-06-22T01:50:32;11.05;;;9.57;;
47772;SDS011;33534;51.028;13.716;2023-06-22T01:52:58;13.60;;;9.63;;
47772;SDS011;33534;51.028;13.716;2023-06-22T01:55:24;12.52;;;9.40;;
47772;SDS011;33534;51.028;13.716;2023-06-22T01:57:50;11.07;;;9.93;;
47772;SDS011;33534;51.028;13.716;2023-06-22T02:00:18;10.48;;;9.43;;
47772;SDS011;33534;51.028;13.716;2023-06-22T02:15:39;14.20;;;10.68;;
47772;SDS011;33534;51.028;13.716;2023-06-22T03:33:06;14.73;;;9.18;;
47772;SDS011;33534;51.028;13.716;2023-06-22T03:35:42;10.80;;;9.32;;
47772;SDS011;33534;51.028;13.716;2023-06-22T03:38:37;11.38;;;9.10;;
47772;SDS011;33534;51.028;13.716;2023-06-22T03:41:09;10.45;;;8.70;;
47772;SDS011;33534;51.028;13.716;2023-06-22T03:49:33;11.23;;;8.43;;
47772;SDS011;33534;51.028;13.716;2023-06-22T03:52:02;10.48;;;8.88;;
47772;SDS011;33534;51.028;13.716;2023-06-22T03:54:34;9.77;;;7.68;;
47772;SDS011;33534;51.028;13.716;2023-06-22T03:59:59;9.38;;;8.18;;
47772;SDS011;33534;51.028;13.716;2023-06-22T04:02:41;12.05;;;7.97;;
47772;SDS011;33534;51.028;13.716;2023-06-22T04:05:40;9.80;;;8.40;;
47772;SDS011;33534;51.028;13.716;2023-06-22T04:29:21;8.40;;;7.30;;
47772;SDS011;33534;51.028;13.716;2023-06-22T04:32:34;7.72;;;6.93;;
47772;SDS011;33534;51.028;13.716;2023-06-22T04:38:49;10.10;;;8.63;;
47772;SDS011;33534;51.028;13.716;2023-06-22T04:41:35;10.98;;;7.25;;
47772;SDS011;33534;51.028;13.716;2023-06-22T04:45:02;9.68;;;6.85;;
47772;SDS011;33534;51.028;13.716;2023-06-22T04:48:12;7.25;;;6.60;;
47772;SDS011;33534;51.028;13.716;2023-06-22T04:54:21;9.00;;;6.70;;
47772;SDS011;33534;51.028;13.716;2023-06-22T05:04:21;10.02;;;6.75;;
47772;SDS011;33534;51.028;13.716;2023-06-22T05:07:38;8.27;;;6.65;;
47772;SDS011;33534;51.028;13.716;2023-06-22T05:23:45;16.98;;;9.48;;
47772;SDS011;33534;51.028;13.716;2023-06-22T05:38:42;13.05;;;7.90;;
47772;SDS011;33534;51.028;13.716;2023-06-22T05:41:16;17.45;;;9.30;;
47772;SDS011;33534;51.028;13.716;2023-06-22T05:43:57;11.77;;;9.52;;
47772;SDS011;33534;51.028;13.716;2023-06-22T05:46:45;15.20;;;9.23;;
47772;SDS011;33534;51.028;13.716;2023-06-22T05:49:20;11.95;;;9.02;;
47772;SDS011;33534;51.028;13.716;2023-06-22T05:52:13;17.08;;;9.48;;
47772;SDS011;33534;51.028;13.716;2023-06-22T05:54:59;12.77;;;9.55;;
47772;SDS011;33534;51.028;13.716;2023-06-22T06:08:13;8.77;;;7.25;;
47772;SDS011;33534;51.028;13.716;2023-06-22T06:13:56;8.60;;;7.32;;
47772;SDS011;33534;51.028;13.716;2023-06-22T06:16:22;9.48;;;7.80;;
47772;SDS011;33534;51.028;13.716;2023-06-22T06:18:47;11.10;;;8.52;;
47772;SDS011;33534;51.028;13.716;2023-06-22T06:21:16;13.27;;;8.38;;
47772;SDS011;33534;51.028;13.716;2023-06-22T06:23:42;11.27;;;7.05;;
47772;SDS011;33534;51.028;13.716;2023-06-22T06:26:08;8.38;;;7.25;;
47772;SDS011;33534;51.028;13.716;2023-06-22T06:28:34;8.77;;;7.85;;
47772;SDS011;33534;51.028;13.716;2023-06-22T06:31:01;8.10;;;7.30;;
47772;SDS011;33534;51.028;13.716;2023-06-22T06:33:27;9.27;;;8.23;;
47772;SDS011;33534;51.028;13.716;2023-06-22T06:35:53;10.15;;;8.57;;
47772;SDS011;33534;51.028;13.716;2023-06-22T06:38:20;8.07;;;7.05;;
47772;SDS011;33534;51.028;13.716;2023-06-22T06:40:46;9.32;;;7.53;;
47772;SDS011;33534;51.028;13.716;2023-06-22T06:43:14;9.15;;;7.82;;
47772;SDS011;33534;51.028;13.716;2023-06-22T06:45:40;11.60;;;8.63;;
47772;SDS011;33534;51.028;13.716;2023-06-22T06:48:06;12.55;;;8.18;;
47772;SDS011;33534;51.028;13.716;2023-06-22T06:50:32;10.43;;;7.60;;
47772;SDS011;33534;51.028;13.716;2023-06-22T06:52:58;15.18;;;8.32;;
47772;SDS011;33534;51.028;13.716;2023-06-22T06:55:24;10.10;;;7.03;;
47772;SDS011;33534;51.028;13.716;2023-06-22T06:57:50;12.15;;;6.90;;
47772;SDS011;33534;51.028;13.716;2023-06-22T07:00:18;9.00;;;7.00;;
47772;SDS011;33534;51.028;13.716;2023-06-22T07:02:44;9.80;;;7.65;;
47772;SDS011;33534;51.028;13.716;2023-06-22T07:05:12;9.75;;;6.88;;
47772;SDS011;33534;51.028;13.716;2023-06-22T07:07:38;8.25;;;6.85;;
47772;SDS011;33534;51.028;13.716;2023-06-22T07:10:05;10.25;;;6.78;;
47772;SDS011;33534;51.028;13.716;2023-06-22T07:12:31;8.13;;;7.35;;
47772;SDS011;33534;51.028;13.716;2023-06-22T07:15:07;10.57;;;7.22;;
47772;SDS011;33534;51.028;13.716;2023-06-22T07:17:34;8.55;;;6.90;;
47772;SDS011;33534;51.028;13.716;2023-06-22T07:20:00;7.32;;;6.20;;
47772;SDS011;33534;51.028;13.716;2023-06-22T07:22:26;7.53;;;6.40;;
47772;SDS011;33534;51.028;13.716;2023-06-22T07:24:52;10.65;;;7.20;;
47772;SDS011;33534;51.028;13.716;2023-06-22T07:27:18;6.82;;;6.22;;
47772;SDS011;33534;51.028;13.716;2023-06-22T07:29:45;8.57;;;6.30;;
47772;SDS011;33534;51.028;13.716;2023-06-22T07:35:36;13.70;;;7.70;;
47772;SDS011;33534;51.028;13.716;2023-06-22T07:38:01;8.35;;;7.00;;
47772;SDS011;33534;51.028;13.716;2023-06-22T07:40:27;10.20;;;7.15;;
47772;SDS011;33534;51.028;13.716;2023-06-22T07:42:53;9.18;;;7.03;;
47772;SDS011;33534;51.028;13.716;2023-06-22T07:45:19;7.93;;;7.00;;
47772;SDS011;33534;51.028;13.716;2023-06-22T07:47:44;6.82;;;6.15;;
47772;SDS011;33534;51.028;13.716;2023-06-22T07:50:10;8.73;;;6.78;;
47772;SDS011;33534;51.028;13.716;2023-06-22T07:52:36;10.63;;;6.57;;
47772;SDS011;33534;51.028;13.716;2023-06-22T07:55:01;7.65;;;6.35;;
47772;SDS011;33534;51.028;13.716;2023-06-22T07:57:28;5.97;;;5.38;;
47772;SDS011;33534;51.028;13.716;2023-06-22T07:59:59;6.95;;;5.70;;
47772;SDS011;33534;51.028;13.716;2023-06-22T08:02:26;6.53;;;5.97;;
47772;SDS011;33534;51.028;13.716;2023-06-22T08:04:52;8.60;;;6.57;;
47772;SDS011;33534;51.028;13.716;2023-06-22T08:07:17;8.52;;;6.93;;
47772;SDS011;33534;51.028;13.716;2023-06-22T08:09:48;8.05;;;7.10;;
47772;SDS011;33534;51.028;13.716;2023-06-22T08:12:14;6.93;;;6.22;;
47772;SDS011;33534;51.028;13.716;2023-06-22T08:14:41;7.32;;;6.40;;
47772;SDS011;33534;51.028;13.716;2023-06-22T08:17:08;7.57;;;6.47;;
47772;SDS011;33534;51.028;13.716;2023-06-22T08:19:34;9.13;;;6.90;;
47772;SDS011;33534;51.028;13.716;2023-06-22T08:22:00;9.45;;;6.40;;
47772;SDS011;33534;51.028;13.716;2023-06-22T08:24:27;9.43;;;6.35;;
47772;SDS011;33534;51.028;13.716;2023-06-22T08:26:55;8.52;;;6.88;;
47772;SDS011;33534;51.028;13.716;2023-06-22T08:29:21;7.75;;;7.03;;
47772;SDS011;33534;51.028;13.716;2023-06-22T08:31:47;9.07;;;6.82;;
47772;SDS011;33534;51.028;13.716;2023-06-22T08:34:13;7.90;;;7.07;;
47772;SDS011;33534;51.028;13.716;2023-06-22T08:36:39;7.90;;;6.18;;
47772;SDS011;33534;51.028;13.716;2023-06-22T08:39:08;7.68;;;5.65;;
47772;SDS011;33534;51.028;13.716;2023-06-22T08:41:34;6.82;;;6.13;;
47772;SDS011;33534;51.028;13.716;2023-06-22T08:44:00;6.85;;;6.18;;
47772;SDS011;33534;51.028;13.716;2023-06-22T08:46:26;7.75;;;5.97;;
47772;SDS011;33534;51.028;13.716;2023-06-22T08:48:56;8.43;;;6.10;;
47772;SDS011;33534;51.028;13.716;2023-06-22T08:51:23;6.50;;;5.80;;
47772;SDS011;33534;51.028;13.716;2023-06-22T08:53:52;7.82;;;5.88;;
47772;SDS011;33534;51.028;13.716;2023-06-22T08:56:18;7.30;;;6.60;;
47772;SDS011;33534;51.028;13.716;2023-06-22T08:58:44;6.75;;;5.97;;
47772;SDS011;33534;51.028;13.716;2023-06-22T09:01:10;7.45;;;6.10;;
47772;SDS011;33534;51.028;13.716;2023-06-22T09:03:36;8.02;;;6.18;;
47772;SDS011;33534;51.028;13.716;2023-06-22T09:06:02;6.40;;;5.60;;
47772;SDS011;33534;51.028;13.716;2023-06-22T09:08:28;6.22;;;5.63;;
47772;SDS011;33534;51.028;13.716;2023-06-22T09:10:55;7.82;;;5.72;;
47772;SDS011;33534;51.028;13.716;2023-06-22T09:13:21;6.70;;;5.60;;
47772;SDS011;33534;51.028;13.716;2023-06-22T09:15:47;6.38;;;5.63;;
47772;SDS011;33534;51.028;13.716;2023-06-22T09:18:13;8.68;;;6.40;;
47772;SDS011;33534;51.028;13.716;2023-06-22T09:20:39;6.90;;;6.30;;
47772;SDS011;33534;51.028;13.716;2023-06-22T09:23:05;6.78;;;6.15;;
47772;SDS011;33534;51.028;13.716;2023-06-22T09:25:31;9.32;;;6.70;;
47772;SDS011;33534;51.028;13.716;2023-06-22T09:27:57;7.32;;;6.47;;
47772;SDS011;33534;51.028;13.716;2023-06-22T09:30:23;6.57;;;5.97;;
47772;SDS011;33534;51.028;13.716;2023-06-22T09:32:48;8.13;;;6.40;;
47772;SDS011;33534;51.028;13.716;2023-06-22T09:35:14;7.00;;;6.30;;
47772;SDS011;33534;51.028;13.716;2023-06-22T09:37:40;7.00;;;6.30;;
47772;SDS011;33534;51.028;13.716;2023-06-22T09:40:06;7.32;;;6.63;;
47772;SDS011;33534;51.028;13.716;2023-06-22T09:42:35;6.70;;;6.07;;
47772;SDS011;33534;51.028;13.716;2023-06-22T09:45:01;9.02;;;6.65;;
47772;SDS011;33534;51.028;13.716;2023-06-22T09:47:27;7.53;;;6.82;;
47772;SDS011;33534;51.028;13.716;2023-06-22T09:49:53;6.90;;;6.30;;
47772;SDS011;33534;51.028;13.716;2023-06-22T09:52:20;8.60;;;6.53;;
47772;SDS011;33534;51.028;13.716;2023-06-22T09:54:46;7.35;;;6.10;;
47772;SDS011;33534;51.028;13.716;2023-06-22T09:57:12;7.72;;;7.03;;
47772;SDS011;33534;51.028;13.716;2023-06-22T09:59:38;7.72;;;6.88;;
47772;SDS011;33534;51.028;13.716;2023-06-22T10:02:05;8.30;;;6.38;;
47772;SDS011;33534;51.028;13.716;2023-06-22T10:04:32;6.88;;;6.28;;
47772;SDS011;33534;51.028;13.716;2023-06-22T10:06:58;7.63;;;6.40;;
47772;SDS011;33534;51.028;13.716;2023-06-22T10:09:24;6.82;;;6.15;;
47772;SDS011;33534;51.028;13.716;2023-06-22T10:11:49;8.07;;;6.72;;
47772;SDS011;33534;51.028;13.716;2023-06-22T10:14:15;7.07;;;6.43;;
47772;SDS011;33534;51.028;13.716;2023-06-22T10:16:41;9.48;;;6.63;;
47772;SDS011;33534;51.028;13.716;2023-06-22T10:19:07;8.68;;;7.00;;
47772;SDS011;33534;51.028;13.716;2023-06-22T10:21:33;6.78;;;6.13;;
47772;SDS011;33534;51.028;13.716;2023-06-22T10:23:59;7.50;;;5.80;;
47772;SDS011;33534;51.028;13.716;2023-06-22T10:26:31;8.25;;;6.57;;
47772;SDS011;33534;51.028;13.716;2023-06-22T10:28:58;7.40;;;6.72;;
47772;SDS011;33534;51.028;13.716;2023-06-22T10:31:24;8.13;;;6.53;;
47772;SDS011;33534;51.028;13.716;2023-06-22T10:33:50;8.30;;;6.80;;
47772;SDS011;33534;51.028;13.716;2023-06-22T10:36:16;7.50;;;6.80;;
47772;SDS011;33534;51.028;13.716;2023-06-22T10:38:41;7.43;;;6.72;;
47772;SDS011;33534;51.028;13.716;2023-06-22T10:41:07;8.50;;;6.65;;
47772;SDS011;33534;51.028;13.716;2023-06-22T10:43:32;11.48;;;6.38;;
47772;SDS011;33534;51.028;13.716;2023-06-22T10:45:58;7.97;;;6.30;;
47772;SDS011;33534;51.028;13.716;2023-06-22T10:48:24;8.40;;;6.47;;
47772;SDS011;33534;51.028;13.716;2023-06-22T10:50:49;7.75;;;5.88;;
47772;SDS011;33534;51.028;13.716;2023-06-22T10:53:15;6.95;;;6.32;;
47772;SDS011;33534;51.028;13.716;2023-06-22T10:55:41;7.53;;;6.72;;
47772;SDS011;33534;51.028;13.716;2023-06-22T10:58:06;7.07;;;6.45;;
47772;SDS011;33534;51.028;13.716;2023-06-22T11:00:32;8.27;;;7.05;;
47772;SDS011;33534;51.028;13.716;2023-06-22T11:02:57;8.43;;;6.88;;
47772;SDS011;33534;51.028;13.716;2023-06-22T11:05:23;7.65;;;6.57;;
47772;SDS011;33534;51.028;13.716;2023-06-22T11:07:49;7.90;;;7.10;;
47772;SDS011;33534;51.028;13.716;2023-06-22T11:10:15;8.75;;;7.15;;
47772;SDS011;33534;51.028;13.716;2023-06-22T11:12:42;7.15;;;6.45;;
47772;SDS011;33534;51.028;13.716;2023-06-22T11:15:08;10.77;;;6.50;;
47772;SDS011;33534;51.028;13.716;2023-06-22T11:17:34;8.52;;;6.85;;
47772;SDS011;33534;51.028;13.716;2023-06-22T11:20:00;7.63;;;6.88;;
47772;SDS011;33534;51.028;13.716;2023-06-22T11:22:29;8.38;;;6.68;;
47772;SDS011;33534;51.028;13.716;2023-06-22T11:24:58;8.52;;;6.70;;
47772;SDS011;33534;51.028;13.716;2023-06-22T11:27:24;8.25;;;6.55;;
47772;SDS011;33534;51.028;13.716;2023-06-22T11:29:50;10.27;;;6.57;;
47772;SDS011;33534;51.028;13.716;2023-06-22T11:32:18;9.38;;;6.85;;
47772;SDS011;33534;51.028;13.716;2023-06-22T11:34:44;10.45;;;7.20;;
47772;SDS011;33534;51.028;13.716;2023-06-22T11:37:10;10.10;;;7.03;;
47772;SDS011;33534;51.028;13.716;2023-06-22T11:39:36;7.40;;;6.57;;
47772;SDS011;33534;51.028;13.716;2023-06-22T11:42:02;8.50;;;6.65;;
47772;SDS011;33534;51.028;13.716;2023-06-22T11:44:28;8.13;;;6.35;;
47772;SDS011;33534;51.028;13.716;2023-06-22T11:46:54;7.53;;;6.72;;
47772;SDS011;33534;51.028;13.716;2023-06-22T11:49:20;7.90;;;6.82;;
47772;SDS011;33534;51.028;13.716;2023-06-22T11:51:46;8.50;;;6.78;;
47772;SDS011;33534;51.028;13.716;2023-06-22T11:54:12;7.95;;;6.97;;
47772;SDS011;33534;51.028;13.716;2023-06-22T11:56:38;9.02;;;6.70;;
47772;SDS011;33534;51.028;13.716;2023-06-22T11:59:04;7.25;;;6.57;;
47772;SDS011;33534;51.028;13.716;2023-06-22T12:01:30;7.47;;;6.55;;
47772;SDS011;33534;51.028;13.716;2023-06-22T12:03:58;7.70;;;7.00;;
47772;SDS011;33534;51.028;13.716;2023-06-22T12:06:23;7.10;;;5.90;;
47772;SDS011;33534;51.028;13.716;2023-06-22T12:08:49;7.70;;;6.47;;
47772;SDS011;33534;51.028;13.716;2023-06-22T12:11:14;7.82;;;6.25;;
47772;SDS011;33534;51.028;13.716;2023-06-22T12:13:40;7.72;;;6.75;;
47772;SDS011;33534;51.028;13.716;2023-06-22T12:16:06;7.68;;;6.55;;
47772;SDS011;33534;51.028;13.716;2023-06-22T12:18:32;10.73;;;7.22;;
47772;SDS011;33534;51.028;13.716;2023-06-22T12:20:58;7.22;;;6.53;;
47772;SDS011;33534;51.028;13.716;2023-06-22T12:23:23;8.80;;;6.82;;
47772;SDS011;33534;51.028;13.716;2023-06-22T12:25:49;8.07;;;6.20;;
47772;SDS011;33534;51.028;13.716;2023-06-22T12:28:15;6.82;;;6.20;;
47772;SDS011;33534;51.028;13.716;2023-06-22T12:30:40;9.73;;;6.80;;
47772;SDS011;33534;51.028;13.716;2023-06-22T12:33:06;7.75;;;7.00;;
47772;SDS011;33534;51.028;13.716;2023-06-22T12:35:32;10.07;;;6.72;;
47772;SDS011;33534;51.028;13.716;2023-06-22T12:37:57;8.15;;;5.63;;
47772;SDS011;33534;51.028;13.716;2023-06-22T12:40:23;9.27;;;6.72;;
47772;SDS011;33534;51.028;13.716;2023-06-22T12:42:49;6.85;;;6.07;;
47772;SDS011;33534;51.028;13.716;2023-06-22T12:45:15;9.82;;;6.05;;
47772;SDS011;33534;51.028;13.716;2023-06-22T12:47:40;7.85;;;6.05;;
47772;SDS011;33534;51.028;13.716;2023-06-22T12:50:06;8.73;;;6.90;;
47772;SDS011;33534;51.028;13.716;2023-06-22T12:52:32;8.45;;;7.15;;
47772;SDS011;33534;51.028;13.716;2023-06-22T12:54:58;8.85;;;6.55;;
47772;SDS011;33534;51.028;13.716;2023-06-22T12:57:24;6.85;;;6.25;;
47772;SDS011;33534;51.028;13.716;2023-06-22T12:59:50;6.88;;;6.03;;
47772;SDS011;33534;51.028;13.716;2023-06-22T13:02:16;7.25;;;6.53;;
47772;SDS011;33534;51.028;13.716;2023-06-22T13:04:41;9.05;;;6.50;;
47772;SDS011;33534;51.028;13.716;2023-06-22T13:07:08;6.70;;;6.10;;
47772;SDS011;33534;51.028;13.716;2023-06-22T13:09:33;9.80;;;6.05;;
47772;SDS011;33534;51.028;13.716;2023-06-22T13:12:01;7.30;;;6.10;;
47772;SDS011;33534;51.028;13.716;2023-06-22T13:14:27;7.70;;;6.70;;
47772;SDS011;33534;51.028;13.716;2023-06-22T13:16:52;6.85;;;6.15;;
47772;SDS011;33534;51.028;13.716;2023-06-22T13:19:18;8.80;;;6.90;;
47772;SDS011;33534;51.028;13.716;2023-06-22T13:21:44;7.68;;;6.90;;
47772;SDS011;33534;51.028;13.716;2023-06-22T13:24:09;8.88;;;6.80;;
47772;SDS011;33534;51.028;13.716;2023-06-22T13:26:35;7.75;;;6.53;;
47772;SDS011;33534;51.028;13.716;2023-06-22T13:29:01;12.20;;;6.50;;
47772;SDS011;33534;51.028;13.716;2023-06-22T13:31:26;6.90;;;6.28;;
47772;SDS011;33534;51.028;13.716;2023-06-22T13:33:52;7.95;;;6.57;;
47772;SDS011;33534;51.028;13.716;2023-06-22T13:36:18;7.70;;;6.10;;
47772;SDS011;33534;51.028;13.716;2023-06-22T13:38:44;8.82;;;5.80;;
47772;SDS011;33534;51.028;13.716;2023-06-22T13:41:10;7.53;;;5.57;;
47772;SDS011;33534;51.028;13.716;2023-06-22T13:43:35;11.43;;;7.40;;
47772;SDS011;33534;51.028;13.716;2023-06-22T13:46:01;8.60;;;6.80;;
47772;SDS011;33534;51.028;13.716;2023-06-22T13:48:26;7.80;;;6.93;;
47772;SDS011;33534;51.028;13.716;2023-06-22T13:50:53;7.35;;;6.20;;
47772;SDS011;33534;51.028;13.716;2023-06-22T13:53:19;7.65;;;6.35;;
47772;SDS011;33534;51.028;13.716;2023-06-22T13:55:45;8.30;;;6.70;;
47772;SDS011;33534;51.028;13.716;2023-06-22T13:58:12;8.52;;;6.07;;
47772;SDS011;33534;51.028;13.716;2023-06-22T14:00:38;12.10;;;6.20;;
47772;SDS011;33534;51.028;13.716;2023-06-22T14:03:04;7.38;;;6.40;;
47772;SDS011;33534;51.028;13.716;2023-06-22T14:05:29;8.82;;;5.95;;
47772;SDS011;33534;51.028;13.716;2023-06-22T14:07:55;9.40;;;6.72;;
47772;SDS011;33534;51.028;13.716;2023-06-22T14:10:21;7.97;;;6.18;;
47772;SDS011;33534;51.028;13.716;2023-06-22T14:12:46;6.75;;;5.97;;
47772;SDS011;33534;51.028;13.716;2023-06-22T14:15:12;8.52;;;6.47;;
47772;SDS011;33534;51.028;13.716;2023-06-22T14:17:37;8.25;;;6.10;;
47772;SDS011;33534;51.028;13.716;2023-06-22T14:20:03;7.25;;;6.55;;
47772;SDS011;33534;51.028;13.716;2023-06-22T14:22:30;10.93;;;6.43;;
47772;SDS011;33534;51.028;13.716;2023-06-22T14:24:56;10.02;;;6.32;;
47772;SDS011;33534;51.028;13.716;2023-06-22T14:27:23;8.88;;;6.38;;
47772;SDS011;33534;51.028;13.716;2023-06-22T14:29:49;8.13;;;6.32;;
47772;SDS011;33534;51.028;13.716;2023-06-22T14:32:14;7.53;;;6.50;;
47772;SDS011;33534;51.028;13.716;2023-06-22T14:34:40;12.45;;;6.97;;
47772;SDS011;33534;51.028;13.716;2023-06-22T14:37:06;6.70;;;6.03;;
47772;SDS011;33534;51.028;13.716;2023-06-22T14:39:32;8.20;;;6.10;;
47772;SDS011;33534;51.028;13.716;2023-06-22T14:41:58;7.30;;;6.13;;
47772;SDS011;33534;51.028;13.716;2023-06-22T14:44:25;8.50;;;6.00;;
47772;SDS011;33534;51.028;13.716;2023-06-22T14:46:54;10.35;;;6.68;;
47772;SDS011;33534;51.028;13.716;2023-06-22T14:49:19;8.45;;;5.90;;
47772;SDS011;33534;51.028;13.716;2023-06-22T14:51:45;6.93;;;6.10;;
47772;SDS011;33534;51.028;13.716;2023-06-22T14:54:11;8.77;;;6.18;;
47772;SDS011;33534;51.028;13.716;2023-06-22T14:56:36;11.85;;;6.22;;
47772;SDS011;33534;51.028;13.716;2023-06-22T14:59:02;8.57;;;6.55;;
47772;SDS011;33534;51.028;13.716;2023-06-22T15:01:27;7.97;;;6.50;;
47772;SDS011;33534;51.028;13.716;2023-06-22T15:03:53;10.10;;;6.60;;
47772;SDS011;33534;51.028;13.716;2023-06-22T15:06:18;7.28;;;5.93;;
47772;SDS011;33534;51.028;13.716;2023-06-22T15:08:44;9.90;;;6.85;;
47772;SDS011;33534;51.028;13.716;2023-06-22T15:11:10;10.23;;;7.30;;
47772;SDS011;33534;51.028;13.716;2023-06-22T15:13:38;8.90;;;6.60;;
47772;SDS011;33534;51.028;13.716;2023-06-22T15:16:04;9.00;;;6.95;;
47772;SDS011;33534;51.028;13.716;2023-06-22T15:18:30;9.57;;;6.20;;
47772;SDS011;33534;51.028;13.716;2023-06-22T15:20:55;7.60;;;6.32;;
47772;SDS011;33534;51.028;13.716;2023-06-22T15:23:21;8.13;;;6.43;;
47772;SDS011;33534;51.028;13.716;2023-06-22T15:25:47;9.93;;;7.00;;
47772;SDS011;33534;51.028;13.716;2023-06-22T15:28:12;7.47;;;6.43;;
47772;SDS011;33534;51.028;13.716;2023-06-22T15:30:39;9.23;;;7.30;;
47772;SDS011;33534;51.028;13.716;2023-06-22T15:33:05;9.00;;;7.50;;
47772;SDS011;33534;51.028;13.716;2023-06-22T15:35:30;10.52;;;6.50;;
47772;SDS011;33534;51.028;13.716;2023-06-22T15:37:56;8.07;;;6.68;;
47772;SDS011;33534;51.028;13.716;2023-06-22T15:40:22;9.25;;;6.50;;
47772;SDS011;33534;51.028;13.716;2023-06-22T15:42:50;7.45;;;6.72;;
47772;SDS011;33534;51.028;13.716;2023-06-22T15:45:16;7.18;;;6.40;;
47772;SDS011;33534;51.028;13.716;2023-06-22T15:47:42;10.23;;;7.30;;
47772;SDS011;33534;51.028;13.716;2023-06-22T15:50:07;8.55;;;6.20;;
47772;SDS011;33534;51.028;13.716;2023-06-22T15:52:33;10.65;;;6.63;;
47772;SDS011;33534;51.028;13.716;2023-06-22T15:54:59;9.45;;;7.03;;
47772;SDS011;33534;51.028;13.716;2023-06-22T15:57:25;14.35;;;7.03;;
47772;SDS011;33534;51.028;13.716;2023-06-22T15:59:52;6.82;;;6.22;;
47772;SDS011;33534;51.028;13.716;2023-06-22T16:02:18;9.48;;;7.05;;
47772;SDS011;33534;51.028;13.716;2023-06-22T16:04:43;8.75;;;7.13;;
47772;SDS011;33534;51.028;13.716;2023-06-22T16:07:09;8.40;;;7.40;;
47772;SDS011;33534;51.028;13.716;2023-06-22T16:09:37;10.43;;;7.00;;
47772;SDS011;33534;51.028;13.716;2023-06-22T16:12:03;9.88;;;7.15;;
47772;SDS011;33534;51.028;13.716;2023-06-22T16:14:30;8.43;;;7.53;;
47772;SDS011;33534;51.028;13.716;2023-06-22T16:16:56;9.35;;;7.50;;
47772;SDS011;33534;51.028;13.716;2023-06-22T16:19:21;9.25;;;7.35;;
47772;SDS011;33534;51.028;13.716;2023-06-22T16:21:47;9.95;;;7.47;;
47772;SDS011;33534;51.028;13.716;2023-06-22T16:24:12;8.30;;;7.13;;
47772;SDS011;33534;51.028;13.716;2023-06-22T16:26:43;8.35;;;7.35;;
47772;SDS011;33534;51.028;13.716;2023-06-22T16:29:09;9.55;;;7.95;;
47772;SDS011;33534;51.028;13.716;2023-06-22T16:31:35;9.82;;;7.18;;
47772;SDS011;33534;51.028;13.716;2023-06-22T16:34:01;10.18;;;8.50;;
47772;SDS011;33534;51.028;13.716;2023-06-22T16:36:30;9.43;;;7.60;;
47772;SDS011;33534;51.028;13.716;2023-06-22T16:38:56;10.60;;;7.63;;
47772;SDS011;33534;51.028;13.716;2023-06-22T16:41:22;9.05;;;8.15;;
47772;SDS011;33534;51.028;13.716;2023-06-22T16:43:47;11.32;;;7.80;;
47772;SDS011;33534;51.028;13.716;2023-06-22T16:46:13;12.05;;;8.25;;
47772;SDS011;33534;51.028;13.716;2023-06-22T16:48:39;10.45;;;8.75;;
47772;SDS011;33534;51.028;13.716;2023-06-22T16:51:05;10.63;;;8.15;;
47772;SDS011;33534;51.028;13.716;2023-06-22T16:53:31;13.27;;;8.75;;
47772;SDS011;33534;51.028;13.716;2023-06-22T16:55:57;9.73;;;8.65;;
47772;SDS011;33534;51.028;13.716;2023-06-22T16:58:24;10.88;;;8.50;;
47772;SDS011;33534;51.028;13.716;2023-06-22T17:00:55;13.43;;;8.43;;
47772;SDS011;33534;51.028;13.716;2023-06-22T17:03:27;9.02;;;8.20;;
47772;SDS011;33534;51.028;13.716;2023-06-22T17:05:55;10.45;;;8.20;;
47772;SDS011;33534;51.028;13.716;2023-06-22T17:08:22;11.52;;;8.65;;
47772;SDS011;33534;51.028;13.716;2023-06-22T17:10:50;13.75;;;8.45;;
47772;SDS011;33534;51.028;13.716;2023-06-22T17:13:17;14.38;;;7.90;;
47772;SDS011;33534;51.028;13.716;2023-06-22T17:15:43;10.18;;;8.10;;
47772;SDS011;33534;51.028;13.716;2023-06-22T17:18:08;9.15;;;8.25;;
47772;SDS011;33534;51.028;13.716;2023-06-22T17:20:34;9.30;;;7.97;;
47772;SDS011;33534;51.028;13.716;2023-06-22T17:23:00;12.27;;;8.32;;
47772;SDS011;33534;51.028;13.716;2023-06-22T17:25:27;10.80;;;8.30;;
47772;SDS011;33534;51.028;13.716;2023-06-22T17:28:00;8.82;;;7.88;;
47772;SDS011;33534;51.028;13.716;2023-06-22T17:30:27;11.00;;;8.40;;
47772;SDS011;33534;51.028;13.716;2023-06-22T17:32:53;10.13;;;8.75;;
47772;SDS011;33534;51.028;13.716;2023-06-22T17:35:19;11.07;;;8.60;;
47772;SDS011;33534;51.028;13.716;2023-06-22T17:37:55;10.40;;;8.40;;